San Salvador, El Salvador
Current Conditions -  °F | °C
As of 10:50 PM on Thursday 18 Dec 2014 (Local Time) from MSSS Reporting Station
Clear Clear  
Wind Chill: 68°   Ceiling: Unl
Heat Index: 68°   Visibility: 6mi
Dew Point: 66°   Wind: 5mph
Humidity: 94%   Direction: 350°N
Pressure: 30"   Gusts: NA
Location:  13.77°N, 89.16°W
Report Text: MSSS 190450Z 35004KT CAVOK 20/19 Q1016 A3002
Loading
Personal Weather Stations






























Interactive Weather Map New forecast layout! Learn more

10-Day Weather Forecast

Advertisements
Track Severe Weather on mobile